sensor_id;sensor_type;location;lat;lon;timestamp;P1;durP1;ratioP1;P2;durP2;ratioP2
2674;SDS011;1347;42.122;24.746;2022-12-18T00:00:58;51.83;;;39.50;;
2674;SDS011;1347;42.122;24.746;2022-12-18T00:03:25;53.83;;;38.47;;
2674;SDS011;1347;42.122;24.746;2022-12-18T00:05:52;53.23;;;39.57;;
2674;SDS011;1347;42.122;24.746;2022-12-18T00:08:19;55.97;;;39.40;;
2674;SDS011;1347;42.122;24.746;2022-12-18T00:10:46;56.90;;;41.03;;
2674;SDS011;1347;42.122;24.746;2022-12-18T00:13:14;52.10;;;37.63;;
2674;SDS011;1347;42.122;24.746;2022-12-18T00:15:41;53.60;;;40.20;;
2674;SDS011;1347;42.122;24.746;2022-12-18T00:18:08;52.37;;;39.10;;
2674;SDS011;1347;42.122;24.746;2022-12-18T00:20:36;63.03;;;44.27;;
2674;SDS011;1347;42.122;24.746;2022-12-18T00:23:03;61.60;;;42.37;;
2674;SDS011;1347;42.122;24.746;2022-12-18T00:25:32;62.73;;;42.80;;
2674;SDS011;1347;42.122;24.746;2022-12-18T00:27:59;58.63;;;42.67;;
2674;SDS011;1347;42.122;24.746;2022-12-18T00:30:28;55.27;;;39.00;;
2674;SDS011;1347;42.122;24.746;2022-12-18T00:32:55;60.30;;;41.07;;
2674;SDS011;1347;42.122;24.746;2022-12-18T00:35:22;58.00;;;41.50;;
2674;SDS011;1347;42.122;24.746;2022-12-18T00:37:49;58.00;;;40.60;;
2674;SDS011;1347;42.122;24.746;2022-12-18T00:40:16;56.50;;;41.37;;
2674;SDS011;1347;42.122;24.746;2022-12-18T00:42:43;56.27;;;39.80;;
2674;SDS011;1347;42.122;24.746;2022-12-18T00:45:21;62.80;;;42.90;;
2674;SDS011;1347;42.122;24.746;2022-12-18T00:47:49;63.17;;;43.03;;
2674;SDS011;1347;42.122;24.746;2022-12-18T00:50:16;60.90;;;38.93;;
2674;SDS011;1347;42.122;24.746;2022-12-18T00:52:45;68.47;;;39.43;;
2674;SDS011;1347;42.122;24.746;2022-12-18T00:55:19;54.17;;;33.87;;
2674;SDS011;1347;42.122;24.746;2022-12-18T00:57:46;98.43;;;39.63;;
2674;SDS011;1347;42.122;24.746;2022-12-18T01:00:14;66.17;;;36.23;;
2674;SDS011;1347;42.122;24.746;2022-12-18T01:02:43;72.53;;;37.83;;
2674;SDS011;1347;42.122;24.746;2022-12-18T01:05:12;61.40;;;37.20;;
2674;SDS011;1347;42.122;24.746;2022-12-18T01:07:39;57.57;;;36.13;;
2674;SDS011;1347;42.122;24.746;2022-12-18T01:10:07;49.93;;;33.70;;
2674;SDS011;1347;42.122;24.746;2022-12-18T01:12:35;47.50;;;32.83;;
2674;SDS011;1347;42.122;24.746;2022-12-18T01:15:02;45.30;;;35.00;;
2674;SDS011;1347;42.122;24.746;2022-12-18T01:17:30;45.40;;;34.07;;
2674;SDS011;1347;42.122;24.746;2022-12-18T01:19:57;46.23;;;35.40;;
2674;SDS011;1347;42.122;24.746;2022-12-18T01:22:26;45.17;;;35.00;;
2674;SDS011;1347;42.122;24.746;2022-12-18T01:24:52;49.53;;;36.00;;
2674;SDS011;1347;42.122;24.746;2022-12-18T01:27:22;50.77;;;35.70;;
2674;SDS011;1347;42.122;24.746;2022-12-18T01:29:49;50.50;;;36.90;;
2674;SDS011;1347;42.122;24.746;2022-12-18T01:32:18;50.83;;;36.50;;
2674;SDS011;1347;42.122;24.746;2022-12-18T01:34:45;47.87;;;38.17;;
2674;SDS011;1347;42.122;24.746;2022-12-18T01:37:12;43.53;;;34.57;;
2674;SDS011;1347;42.122;24.746;2022-12-18T01:39:40;46.20;;;36.30;;
2674;SDS011;1347;42.122;24.746;2022-12-18T01:42:09;47.17;;;36.30;;
2674;SDS011;1347;42.122;24.746;2022-12-18T01:47:24;45.40;;;36.07;;
2674;SDS011;1347;42.122;24.746;2022-12-18T01:49:54;39.57;;;32.47;;
2674;SDS011;1347;42.122;24.746;2022-12-18T01:52:22;35.53;;;28.60;;
2674;SDS011;1347;42.122;24.746;2022-12-18T01:54:53;39.30;;;29.87;;
2674;SDS011;1347;42.122;24.746;2022-12-18T01:57:22;36.67;;;29.30;;
2674;SDS011;1347;42.122;24.746;2022-12-18T01:59:52;33.10;;;28.93;;
2674;SDS011;1347;42.122;24.746;2022-12-18T02:02:20;39.07;;;29.27;;
2674;SDS011;1347;42.122;24.746;2022-12-18T02:04:48;35.03;;;27.23;;
2674;SDS011;1347;42.122;24.746;2022-12-18T02:07:16;35.80;;;27.80;;
2674;SDS011;1347;42.122;24.746;2022-12-18T02:09:57;30.63;;;24.83;;
2674;SDS011;1347;42.122;24.746;2022-12-18T02:12:27;34.23;;;26.90;;
2674;SDS011;1347;42.122;24.746;2022-12-18T02:15:03;34.23;;;25.27;;
2674;SDS011;1347;42.122;24.746;2022-12-18T02:17:36;33.33;;;26.80;;
2674;SDS011;1347;42.122;24.746;2022-12-18T02:20:07;31.50;;;24.87;;
2674;SDS011;1347;42.122;24.746;2022-12-18T02:22:43;36.00;;;26.33;;
2674;SDS011;1347;42.122;24.746;2022-12-18T02:25:26;29.80;;;24.30;;
2674;SDS011;1347;42.122;24.746;2022-12-18T02:28:09;30.53;;;23.50;;
2674;SDS011;1347;42.122;24.746;2022-12-18T02:30:39;29.57;;;24.47;;
2674;SDS011;1347;42.122;24.746;2022-12-18T02:33:08;29.07;;;22.77;;
2674;SDS011;1347;42.122;24.746;2022-12-18T02:35:37;31.87;;;22.90;;
2674;SDS011;1347;42.122;24.746;2022-12-18T02:38:07;29.37;;;22.43;;
2674;SDS011;1347;42.122;24.746;2022-12-18T02:40:34;27.77;;;21.50;;
2674;SDS011;1347;42.122;24.746;2022-12-18T02:43:02;24.83;;;20.70;;
2674;SDS011;1347;42.122;24.746;2022-12-18T02:45:35;28.67;;;22.20;;
2674;SDS011;1347;42.122;24.746;2022-12-18T02:48:02;27.70;;;22.20;;
2674;SDS011;1347;42.122;24.746;2022-12-18T02:50:30;27.00;;;22.40;;
2674;SDS011;1347;42.122;24.746;2022-12-18T02:53:06;29.17;;;21.60;;
2674;SDS011;1347;42.122;24.746;2022-12-18T02:55:44;28.70;;;21.70;;
2674;SDS011;1347;42.122;24.746;2022-12-18T02:58:24;27.27;;;21.67;;
2674;SDS011;1347;42.122;24.746;2022-12-18T03:00:58;31.30;;;22.73;;
2674;SDS011;1347;42.122;24.746;2022-12-18T03:03:31;27.97;;;21.33;;
2674;SDS011;1347;42.122;24.746;2022-12-18T03:06:06;29.63;;;22.67;;
2674;SDS011;1347;42.122;24.746;2022-12-18T03:08:41;36.07;;;24.00;;
2674;SDS011;1347;42.122;24.746;2022-12-18T03:11:11;29.50;;;21.60;;
2674;SDS011;1347;42.122;24.746;2022-12-18T03:13:42;30.10;;;21.60;;
2674;SDS011;1347;42.122;24.746;2022-12-18T03:16:15;30.03;;;24.00;;
2674;SDS011;1347;42.122;24.746;2022-12-18T03:18:47;28.07;;;23.00;;
2674;SDS011;1347;42.122;24.746;2022-12-18T03:21:18;28.90;;;21.03;;
2674;SDS011;1347;42.122;24.746;2022-12-18T03:23:48;29.13;;;22.93;;
2674;SDS011;1347;42.122;24.746;2022-12-18T03:26:18;28.60;;;21.47;;
2674;SDS011;1347;42.122;24.746;2022-12-18T03:28:51;29.30;;;22.03;;
2674;SDS011;1347;42.122;24.746;2022-12-18T03:31:22;30.43;;;23.63;;
2674;SDS011;1347;42.122;24.746;2022-12-18T03:33:56;28.17;;;23.00;;
2674;SDS011;1347;42.122;24.746;2022-12-18T03:36:25;24.80;;;20.73;;
2674;SDS011;1347;42.122;24.746;2022-12-18T03:38:53;25.70;;;21.20;;
2674;SDS011;1347;42.122;24.746;2022-12-18T03:41:22;27.00;;;22.23;;
2674;SDS011;1347;42.122;24.746;2022-12-18T03:43:57;26.63;;;20.43;;
2674;SDS011;1347;42.122;24.746;2022-12-18T03:46:38;26.50;;;21.30;;
2674;SDS011;1347;42.122;24.746;2022-12-18T03:49:16;27.73;;;21.07;;
2674;SDS011;1347;42.122;24.746;2022-12-18T03:51:50;24.90;;;20.57;;
2674;SDS011;1347;42.122;24.746;2022-12-18T03:54:21;30.40;;;21.03;;
2674;SDS011;1347;42.122;24.746;2022-12-18T03:56:52;23.30;;;19.23;;
2674;SDS011;1347;42.122;24.746;2022-12-18T03:59:27;21.93;;;18.30;;
2674;SDS011;1347;42.122;24.746;2022-12-18T04:01:59;22.70;;;18.50;;
2674;SDS011;1347;42.122;24.746;2022-12-18T04:04:27;23.60;;;19.27;;
2674;SDS011;1347;42.122;24.746;2022-12-18T04:06:56;26.10;;;18.27;;
2674;SDS011;1347;42.122;24.746;2022-12-18T04:09:24;21.37;;;17.83;;
2674;SDS011;1347;42.122;24.746;2022-12-18T04:11:52;21.10;;;17.17;;
2674;SDS011;1347;42.122;24.746;2022-12-18T04:14:19;18.70;;;16.70;;
2674;SDS011;1347;42.122;24.746;2022-12-18T04:16:47;19.23;;;15.27;;
2674;SDS011;1347;42.122;24.746;2022-12-18T04:19:14;23.13;;;17.50;;
2674;SDS011;1347;42.122;24.746;2022-12-18T04:21:41;23.60;;;18.40;;
2674;SDS011;1347;42.122;24.746;2022-12-18T04:24:11;22.20;;;16.17;;
2674;SDS011;1347;42.122;24.746;2022-12-18T04:26:38;20.40;;;16.50;;
2674;SDS011;1347;42.122;24.746;2022-12-18T04:29:04;17.97;;;15.37;;
2674;SDS011;1347;42.122;24.746;2022-12-18T04:31:31;20.53;;;16.57;;
2674;SDS011;1347;42.122;24.746;2022-12-18T04:34:00;16.67;;;14.20;;
2674;SDS011;1347;42.122;24.746;2022-12-18T04:36:27;17.77;;;14.07;;
2674;SDS011;1347;42.122;24.746;2022-12-18T04:38:54;14.40;;;12.90;;
2674;SDS011;1347;42.122;24.746;2022-12-18T04:41:21;14.37;;;11.17;;
2674;SDS011;1347;42.122;24.746;2022-12-18T04:43:47;13.90;;;12.40;;
2674;SDS011;1347;42.122;24.746;2022-12-18T04:46:14;11.70;;;10.10;;
2674;SDS011;1347;42.122;24.746;2022-12-18T04:48:41;12.33;;;9.93;;
2674;SDS011;1347;42.122;24.746;2022-12-18T04:51:09;9.60;;;8.70;;
2674;SDS011;1347;42.122;24.746;2022-12-18T04:53:36;12.50;;;9.27;;
2674;SDS011;1347;42.122;24.746;2022-12-18T04:56:04;10.50;;;8.37;;
2674;SDS011;1347;42.122;24.746;2022-12-18T04:58:32;10.73;;;9.27;;
2674;SDS011;1347;42.122;24.746;2022-12-18T05:00:59;10.30;;;8.87;;
2674;SDS011;1347;42.122;24.746;2022-12-18T05:03:26;10.80;;;9.10;;
2674;SDS011;1347;42.122;24.746;2022-12-18T05:05:53;8.77;;;7.97;;
2674;SDS011;1347;42.122;24.746;2022-12-18T05:08:22;10.90;;;8.00;;
2674;SDS011;1347;42.122;24.746;2022-12-18T05:10:49;8.60;;;7.57;;
2674;SDS011;1347;42.122;24.746;2022-12-18T05:13:16;10.13;;;8.43;;
2674;SDS011;1347;42.122;24.746;2022-12-18T05:15:43;8.73;;;7.83;;
2674;SDS011;1347;42.122;24.746;2022-12-18T05:18:18;11.93;;;10.13;;
2674;SDS011;1347;42.122;24.746;2022-12-18T05:20:44;11.77;;;8.73;;
2674;SDS011;1347;42.122;24.746;2022-12-18T05:23:11;11.27;;;8.70;;
2674;SDS011;1347;42.122;24.746;2022-12-18T05:25:40;13.00;;;9.27;;
2674;SDS011;1347;42.122;24.746;2022-12-18T05:28:06;10.80;;;8.50;;
2674;SDS011;1347;42.122;24.746;2022-12-18T05:30:33;13.03;;;10.40;;
2674;SDS011;1347;42.122;24.746;2022-12-18T05:33:00;12.50;;;9.47;;
2674;SDS011;1347;42.122;24.746;2022-12-18T05:35:27;10.27;;;8.37;;
2674;SDS011;1347;42.122;24.746;2022-12-18T05:37:54;12.80;;;8.40;;
2674;SDS011;1347;42.122;24.746;2022-12-18T05:40:21;12.30;;;9.90;;
2674;SDS011;1347;42.122;24.746;2022-12-18T05:42:49;10.10;;;8.63;;
2674;SDS011;1347;42.122;24.746;2022-12-18T05:45:16;10.53;;;9.33;;
2674;SDS011;1347;42.122;24.746;2022-12-18T05:47:43;10.97;;;9.07;;
2674;SDS011;1347;42.122;24.746;2022-12-18T05:50:09;12.97;;;9.13;;
2674;SDS011;1347;42.122;24.746;2022-12-18T05:52:36;10.90;;;9.73;;
2674;SDS011;1347;42.122;24.746;2022-12-18T05:55:03;11.63;;;9.10;;
2674;SDS011;1347;42.122;24.746;2022-12-18T05:57:31;12.50;;;9.60;;
2674;SDS011;1347;42.122;24.746;2022-12-18T05:59:59;10.60;;;7.70;;
2674;SDS011;1347;42.122;24.746;2022-12-18T06:02:26;10.17;;;8.70;;
2674;SDS011;1347;42.122;24.746;2022-12-18T06:04:53;8.90;;;8.00;;
2674;SDS011;1347;42.122;24.746;2022-12-18T06:07:19;17.20;;;8.63;;
2674;SDS011;1347;42.122;24.746;2022-12-18T06:09:46;11.07;;;8.80;;
2674;SDS011;1347;42.122;24.746;2022-12-18T06:12:13;8.70;;;7.80;;
2674;SDS011;1347;42.122;24.746;2022-12-18T06:14:40;12.30;;;8.83;;
2674;SDS011;1347;42.122;24.746;2022-12-18T06:17:09;11.67;;;8.77;;
2674;SDS011;1347;42.122;24.746;2022-12-18T06:19:36;11.40;;;9.20;;
2674;SDS011;1347;42.122;24.746;2022-12-18T06:22:03;10.20;;;8.70;;
2674;SDS011;1347;42.122;24.746;2022-12-18T06:24:30;9.90;;;8.87;;
2674;SDS011;1347;42.122;24.746;2022-12-18T06:26:58;10.60;;;8.47;;
2674;SDS011;1347;42.122;24.746;2022-12-18T06:29:25;17.30;;;10.40;;
2674;SDS011;1347;42.122;24.746;2022-12-18T06:31:52;11.47;;;8.97;;
2674;SDS011;1347;42.122;24.746;2022-12-18T06:34:20;11.87;;;8.60;;
2674;SDS011;1347;42.122;24.746;2022-12-18T06:36:47;14.40;;;8.47;;
2674;SDS011;1347;42.122;24.746;2022-12-18T06:39:14;12.07;;;8.70;;
2674;SDS011;1347;42.122;24.746;2022-12-18T06:41:41;12.70;;;10.77;;
2674;SDS011;1347;42.122;24.746;2022-12-18T06:44:08;16.23;;;10.20;;
2674;SDS011;1347;42.122;24.746;2022-12-18T06:46:34;13.30;;;8.80;;
2674;SDS011;1347;42.122;24.746;2022-12-18T06:49:03;12.30;;;8.50;;
2674;SDS011;1347;42.122;24.746;2022-12-18T06:51:31;11.70;;;8.70;;
2674;SDS011;1347;42.122;24.746;2022-12-18T06:53:58;10.30;;;8.70;;
2674;SDS011;1347;42.122;24.746;2022-12-18T06:56:25;10.50;;;9.40;;
2674;SDS011;1347;42.122;24.746;2022-12-18T06:58:53;10.80;;;7.97;;
2674;SDS011;1347;42.122;24.746;2022-12-18T07:01:20;11.47;;;9.23;;
2674;SDS011;1347;42.122;24.746;2022-12-18T07:03:51;12.20;;;9.10;;
2674;SDS011;1347;42.122;24.746;2022-12-18T07:06:18;13.37;;;9.90;;
2674;SDS011;1347;42.122;24.746;2022-12-18T07:08:48;10.23;;;8.13;;
2674;SDS011;1347;42.122;24.746;2022-12-18T07:11:16;10.30;;;8.47;;
2674;SDS011;1347;42.122;24.746;2022-12-18T07:13:44;13.33;;;9.67;;
2674;SDS011;1347;42.122;24.746;2022-12-18T07:16:12;12.53;;;8.80;;
2674;SDS011;1347;42.122;24.746;2022-12-18T07:18:40;15.73;;;12.27;;
2674;SDS011;1347;42.122;24.746;2022-12-18T07:21:07;9.53;;;8.60;;
2674;SDS011;1347;42.122;24.746;2022-12-18T07:23:36;10.70;;;9.07;;
2674;SDS011;1347;42.122;24.746;2022-12-18T07:26:05;15.90;;;9.17;;
2674;SDS011;1347;42.122;24.746;2022-12-18T07:28:34;10.90;;;8.37;;
2674;SDS011;1347;42.122;24.746;2022-12-18T07:31:02;11.23;;;9.60;;
2674;SDS011;1347;42.122;24.746;2022-12-18T07:33:39;11.70;;;9.83;;
2674;SDS011;1347;42.122;24.746;2022-12-18T07:36:10;12.50;;;9.17;;
2674;SDS011;1347;42.122;24.746;2022-12-18T07:38:43;12.20;;;8.90;;
2674;SDS011;1347;42.122;24.746;2022-12-18T07:41:23;11.03;;;9.40;;
2674;SDS011;1347;42.122;24.746;2022-12-18T07:43:53;11.03;;;7.80;;
2674;SDS011;1347;42.122;24.746;2022-12-18T07:46:24;10.00;;;8.53;;
2674;SDS011;1347;42.122;24.746;2022-12-18T07:49:04;10.43;;;8.27;;
2674;SDS011;1347;42.122;24.746;2022-12-18T07:51:37;11.63;;;8.50;;
2674;SDS011;1347;42.122;24.746;2022-12-18T07:54:35;11.03;;;8.73;;
2674;SDS011;1347;42.122;24.746;2022-12-18T07:57:25;10.73;;;9.23;;
2674;SDS011;1347;42.122;24.746;2022-12-18T07:59:55;12.00;;;9.57;;
2674;SDS011;1347;42.122;24.746;2022-12-18T08:02:31;14.10;;;10.73;;
2674;SDS011;1347;42.122;24.746;2022-12-18T08:05:00;12.07;;;8.97;;
2674;SDS011;1347;42.122;24.746;2022-12-18T08:07:29;12.00;;;7.47;;
2674;SDS011;1347;42.122;24.746;2022-12-18T08:10:06;12.07;;;9.40;;
2674;SDS011;1347;42.122;24.746;2022-12-18T08:12:39;10.13;;;7.57;;
2674;SDS011;1347;42.122;24.746;2022-12-18T08:15:06;10.87;;;8.67;;
2674;SDS011;1347;42.122;24.746;2022-12-18T08:17:43;10.10;;;8.60;;
2674;SDS011;1347;42.122;24.746;2022-12-18T08:20:32;10.77;;;7.97;;
2674;SDS011;1347;42.122;24.746;2022-12-18T08:23:23;10.13;;;8.87;;
2674;SDS011;1347;42.122;24.746;2022-12-18T08:26:00;9.20;;;8.20;;
2674;SDS011;1347;42.122;24.746;2022-12-18T08:28:32;11.03;;;8.47;;
2674;SDS011;1347;42.122;24.746;2022-12-18T08:31:04;9.67;;;8.67;;
2674;SDS011;1347;42.122;24.746;2022-12-18T08:33:37;9.53;;;8.10;;
2674;SDS011;1347;42.122;24.746;2022-12-18T08:36:13;9.43;;;8.27;;
2674;SDS011;1347;42.122;24.746;2022-12-18T08:38:41;10.60;;;8.50;;
2674;SDS011;1347;42.122;24.746;2022-12-18T08:41:12;11.90;;;9.20;;
2674;SDS011;1347;42.122;24.746;2022-12-18T08:43:50;24.10;;;17.67;;
2674;SDS011;1347;42.122;24.746;2022-12-18T08:46:56;12.00;;;10.10;;
2674;SDS011;1347;42.122;24.746;2022-12-18T08:49:24;16.10;;;8.90;;
2674;SDS011;1347;42.122;24.746;2022-12-18T08:51:59;9.73;;;7.60;;
2674;SDS011;1347;42.122;24.746;2022-12-18T08:54:28;10.80;;;8.25;;
2674;SDS011;1347;42.122;24.746;2022-12-18T08:56:55;8.77;;;6.87;;
2674;SDS011;1347;42.122;24.746;2022-12-18T08:59:24;11.80;;;8.27;;
2674;SDS011;1347;42.122;24.746;2022-12-18T09:01:53;12.50;;;8.93;;
2674;SDS011;1347;42.122;24.746;2022-12-18T09:04:20;10.47;;;8.97;;
2674;SDS011;1347;42.122;24.746;2022-12-18T09:06:48;12.03;;;9.30;;
2674;SDS011;1347;42.122;24.746;2022-12-18T09:09:16;9.43;;;8.43;;
2674;SDS011;1347;42.122;24.746;2022-12-18T09:11:43;12.07;;;8.50;;
2674;SDS011;1347;42.122;24.746;2022-12-18T09:14:10;11.60;;;9.00;;
2674;SDS011;1347;42.122;24.746;2022-12-18T09:16:38;10.87;;;8.13;;
2674;SDS011;1347;42.122;24.746;2022-12-18T09:19:05;12.30;;;10.20;;
2674;SDS011;1347;42.122;24.746;2022-12-18T09:21:32;9.37;;;8.37;;
2674;SDS011;1347;42.122;24.746;2022-12-18T09:24:01;11.50;;;9.87;;
2674;SDS011;1347;42.122;24.746;2022-12-18T09:26:28;11.00;;;8.87;;
2674;SDS011;1347;42.122;24.746;2022-12-18T09:28:55;8.77;;;7.53;;
2674;SDS011;1347;42.122;24.746;2022-12-18T09:31:23;14.83;;;9.40;;
2674;SDS011;1347;42.122;24.746;2022-12-18T09:33:52;9.73;;;8.37;;
2674;SDS011;1347;42.122;24.746;2022-12-18T09:36:21;11.17;;;9.40;;
2674;SDS011;1347;42.122;24.746;2022-12-18T09:38:48;10.73;;;8.80;;
2674;SDS011;1347;42.122;24.746;2022-12-18T09:41:17;13.20;;;8.73;;
2674;SDS011;1347;42.122;24.746;2022-12-18T09:43:59;9.30;;;8.40;;
2674;SDS011;1347;42.122;24.746;2022-12-18T09:46:30;9.77;;;8.53;;
2674;SDS011;1347;42.122;24.746;2022-12-18T09:49:05;11.77;;;10.50;;
2674;SDS011;1347;42.122;24.746;2022-12-18T09:51:38;12.43;;;9.17;;
2674;SDS011;1347;42.122;24.746;2022-12-18T09:54:11;11.50;;;9.30;;
2674;SDS011;1347;42.122;24.746;2022-12-18T09:56:42;11.00;;;8.53;;
2674;SDS011;1347;42.122;24.746;2022-12-18T09:59:15;13.07;;;9.43;;
2674;SDS011;1347;42.122;24.746;2022-12-18T10:01:47;10.93;;;8.90;;
2674;SDS011;1347;42.122;24.746;2022-12-18T10:04:15;17.53;;;9.90;;
2674;SDS011;1347;42.122;24.746;2022-12-18T10:06:43;12.30;;;10.60;;
2674;SDS011;1347;42.122;24.746;2022-12-18T10:09:18;12.43;;;8.30;;
2674;SDS011;1347;42.122;24.746;2022-12-18T10:11:53;12.80;;;9.60;;
2674;SDS011;1347;42.122;24.746;2022-12-18T10:14:30;10.50;;;8.43;;
2674;SDS011;1347;42.122;24.746;2022-12-18T10:17:06;10.87;;;8.37;;
2674;SDS011;1347;42.122;24.746;2022-12-18T10:19:43;11.90;;;9.00;;
2674;SDS011;1347;42.122;24.746;2022-12-18T10:22:21;12.17;;;8.87;;
2674;SDS011;1347;42.122;24.746;2022-12-18T10:24:57;10.30;;;8.70;;
2674;SDS011;1347;42.122;24.746;2022-12-18T10:27:30;14.97;;;8.00;;
2674;SDS011;1347;42.122;24.746;2022-12-18T10:29:57;16.60;;;10.40;;
2674;SDS011;1347;42.122;24.746;2022-12-18T10:32:25;12.20;;;8.37;;
2674;SDS011;1347;42.122;24.746;2022-12-18T10:34:55;9.50;;;8.43;;
2674;SDS011;1347;42.122;24.746;2022-12-18T10:37:24;8.47;;;7.50;;
2674;SDS011;1347;42.122;24.746;2022-12-18T10:40:05;12.50;;;7.83;;
2674;SDS011;1347;42.122;24.746;2022-12-18T10:42:35;13.00;;;10.20;;
2674;SDS011;1347;42.122;24.746;2022-12-18T10:45:03;11.27;;;9.43;;
2674;SDS011;1347;42.122;24.746;2022-12-18T10:47:35;11.63;;;9.23;;
2674;SDS011;1347;42.122;24.746;2022-12-18T10:50:04;13.00;;;9.70;;
2674;SDS011;1347;42.122;24.746;2022-12-18T10:52:44;12.67;;;10.50;;
2674;SDS011;1347;42.122;24.746;2022-12-18T10:55:20;11.60;;;9.67;;
2674;SDS011;1347;42.122;24.746;2022-12-18T10:57:50;14.57;;;9.33;;
2674;SDS011;1347;42.122;24.746;2022-12-18T11:00:23;12.90;;;9.70;;
2674;SDS011;1347;42.122;24.746;2022-12-18T11:02:53;14.60;;;8.90;;
2674;SDS011;1347;42.122;24.746;2022-12-18T11:05:28;10.60;;;9.40;;
2674;SDS011;1347;42.122;24.746;2022-12-18T11:07:57;13.27;;;9.90;;
2674;SDS011;1347;42.122;24.746;2022-12-18T11:10:26;14.77;;;11.13;;
2674;SDS011;1347;42.122;24.746;2022-12-18T11:13:08;15.10;;;11.60;;
2674;SDS011;1347;42.122;24.746;2022-12-18T11:15:53;18.23;;;12.37;;
2674;SDS011;1347;42.122;24.746;2022-12-18T11:18:30;14.43;;;12.07;;
2674;SDS011;1347;42.122;24.746;2022-12-18T11:21:10;18.33;;;11.80;;
2674;SDS011;1347;42.122;24.746;2022-12-18T11:23:46;15.07;;;11.10;;
2674;SDS011;1347;42.122;24.746;2022-12-18T11:26:15;13.93;;;12.27;;
2674;SDS011;1347;42.122;24.746;2022-12-18T11:28:43;17.00;;;14.37;;
2674;SDS011;1347;42.122;24.746;2022-12-18T11:31:17;15.93;;;11.93;;
2674;SDS011;1347;42.122;24.746;2022-12-18T11:33:48;12.13;;;10.53;;
2674;SDS011;1347;42.122;24.746;2022-12-18T11:36:23;14.17;;;11.23;;
2674;SDS011;1347;42.122;24.746;2022-12-18T11:38:52;12.30;;;10.37;;
2674;SDS011;1347;42.122;24.746;2022-12-18T11:41:23;16.60;;;10.80;;
2674;SDS011;1347;42.122;24.746;2022-12-18T11:44:10;19.93;;;10.67;;
2674;SDS011;1347;42.122;24.746;2022-12-18T11:46:41;14.70;;;10.07;;
2674;SDS011;1347;42.122;24.746;2022-12-18T11:49:14;14.33;;;11.53;;
2674;SDS011;1347;42.122;24.746;2022-12-18T11:51:49;17.20;;;11.30;;
2674;SDS011;1347;42.122;24.746;2022-12-18T11:54:21;13.23;;;11.37;;
2674;SDS011;1347;42.122;24.746;2022-12-18T11:56:49;16.03;;;11.80;;
2674;SDS011;1347;42.122;24.746;2022-12-18T12:37:59;22.40;;;19.80;;
2674;SDS011;1347;42.122;24.746;2022-12-18T12:40:34;20.10;;;12.10;;
2674;SDS011;1347;42.122;24.746;2022-12-18T12:43:03;13.40;;;11.70;;
2674;SDS011;1347;42.122;24.746;2022-12-18T12:45:41;16.40;;;11.83;;
2674;SDS011;1347;42.122;24.746;2022-12-18T12:48:15;16.33;;;13.27;;
2674;SDS011;1347;42.122;24.746;2022-12-18T12:50:45;19.17;;;13.23;;
2674;SDS011;1347;42.122;24.746;2022-12-18T12:53:19;17.03;;;12.73;;
2674;SDS011;1347;42.122;24.746;2022-12-18T12:55:52;15.50;;;11.80;;
2674;SDS011;1347;42.122;24.746;2022-12-18T12:58:23;15.27;;;11.80;;
2674;SDS011;1347;42.122;24.746;2022-12-18T13:01:00;14.73;;;11.70;;
2674;SDS011;1347;42.122;24.746;2022-12-18T13:03:36;15.83;;;12.07;;
2674;SDS011;1347;42.122;24.746;2022-12-18T13:06:14;15.60;;;12.87;;
2674;SDS011;1347;42.122;24.746;2022-12-18T13:08:54;14.20;;;11.03;;
2674;SDS011;1347;42.122;24.746;2022-12-18T13:11:35;16.30;;;11.07;;
2674;SDS011;1347;42.122;24.746;2022-12-18T13:14:26;14.03;;;10.97;;
2674;SDS011;1347;42.122;24.746;2022-12-18T13:17:15;16.10;;;12.70;;
2674;SDS011;1347;42.122;24.746;2022-12-18T13:19:43;17.10;;;12.00;;
2674;SDS011;1347;42.122;24.746;2022-12-18T13:22:20;16.17;;;12.57;;
2674;SDS011;1347;42.122;24.746;2022-12-18T13:24:50;23.27;;;18.23;;
2674;SDS011;1347;42.122;24.746;2022-12-18T13:30:41;37.70;;;30.53;;
2674;SDS011;1347;42.122;24.746;2022-12-18T13:33:38;20.73;;;18.53;;
2674;SDS011;1347;42.122;24.746;2022-12-18T13:36:15;24.40;;;22.00;;
2674;SDS011;1347;42.122;24.746;2022-12-18T13:39:20;22.70;;;17.27;;
2674;SDS011;1347;42.122;24.746;2022-12-18T13:41:51;20.40;;;16.80;;
2674;SDS011;1347;42.122;24.746;2022-12-18T13:44:29;22.60;;;18.13;;
2674;SDS011;1347;42.122;24.746;2022-12-18T13:46:59;23.80;;;19.00;;
2674;SDS011;1347;42.122;24.746;2022-12-18T13:49:28;25.13;;;18.10;;
2674;SDS011;1347;42.122;24.746;2022-12-18T13:52:03;26.97;;;22.67;;
2674;SDS011;1347;42.122;24.746;2022-12-18T13:54:42;24.43;;;18.37;;
2674;SDS011;1347;42.122;24.746;2022-12-18T13:57:26;31.20;;;22.50;;
2674;SDS011;1347;42.122;24.746;2022-12-18T13:59:56;25.00;;;21.13;;
2674;SDS011;1347;42.122;24.746;2022-12-18T14:02:24;22.30;;;18.27;;
2674;SDS011;1347;42.122;24.746;2022-12-18T14:04:52;25.80;;;18.90;;
2674;SDS011;1347;42.122;24.746;2022-12-18T14:07:21;21.87;;;19.57;;
2674;SDS011;1347;42.122;24.746;2022-12-18T14:09:49;25.37;;;19.80;;
2674;SDS011;1347;42.122;24.746;2022-12-18T14:12:20;23.10;;;20.10;;
2674;SDS011;1347;42.122;24.746;2022-12-18T14:15:09;28.20;;;20.47;;
2674;SDS011;1347;42.122;24.746;2022-12-18T14:17:46;26.57;;;21.23;;
2674;SDS011;1347;42.122;24.746;2022-12-18T14:20:14;25.70;;;21.20;;
2674;SDS011;1347;42.122;24.746;2022-12-18T14:22:42;24.30;;;19.10;;
2674;SDS011;1347;42.122;24.746;2022-12-18T14:25:15;26.00;;;17.43;;
2674;SDS011;1347;42.122;24.746;2022-12-18T14:27:45;25.90;;;17.90;;
2674;SDS011;1347;42.122;24.746;2022-12-18T14:30:30;22.17;;;17.23;;
2674;SDS011;1347;42.122;24.746;2022-12-18T14:33:02;18.03;;;14.93;;
2674;SDS011;1347;42.122;24.746;2022-12-18T14:35:30;24.00;;;17.40;;
2674;SDS011;1347;42.122;24.746;2022-12-18T14:38:09;30.73;;;22.87;;
2674;SDS011;1347;42.122;24.746;2022-12-18T14:40:54;22.90;;;17.23;;
2674;SDS011;1347;42.122;24.746;2022-12-18T14:43:23;24.47;;;16.77;;
2674;SDS011;1347;42.122;24.746;2022-12-18T14:45:52;21.53;;;17.60;;
2674;SDS011;1347;42.122;24.746;2022-12-18T14:48:20;23.17;;;18.10;;
2674;SDS011;1347;42.122;24.746;2022-12-18T14:50:54;23.07;;;17.83;;
2674;SDS011;1347;42.122;24.746;2022-12-18T14:53:24;21.50;;;18.00;;
2674;SDS011;1347;42.122;24.746;2022-12-18T14:55:59;24.60;;;17.27;;
2674;SDS011;1347;42.122;24.746;2022-12-18T14:58:27;23.37;;;16.00;;
2674;SDS011;1347;42.122;24.746;2022-12-18T15:00:55;24.63;;;17.90;;
2674;SDS011;1347;42.122;24.746;2022-12-18T15:03:22;21.00;;;15.33;;
2674;SDS011;1347;42.122;24.746;2022-12-18T15:05:49;23.07;;;17.00;;
2674;SDS011;1347;42.122;24.746;2022-12-18T15:11:02;22.40;;;15.00;;
2674;SDS011;1347;42.122;24.746;2022-12-18T15:13:29;23.00;;;15.67;;
2674;SDS011;1347;42.122;24.746;2022-12-18T15:15:57;20.83;;;14.97;;
2674;SDS011;1347;42.122;24.746;2022-12-18T15:18:30;22.10;;;16.77;;
2674;SDS011;1347;42.122;24.746;2022-12-18T15:21:07;22.50;;;15.10;;
2674;SDS011;1347;42.122;24.746;2022-12-18T15:23:36;21.27;;;14.70;;
2674;SDS011;1347;42.122;24.746;2022-12-18T15:26:13;22.10;;;15.73;;
2674;SDS011;1347;42.122;24.746;2022-12-18T15:28:43;22.53;;;16.60;;
2674;SDS011;1347;42.122;24.746;2022-12-18T15:31:23;21.50;;;17.20;;
2674;SDS011;1347;42.122;24.746;2022-12-18T15:36:46;22.60;;;17.17;;
2674;SDS011;1347;42.122;24.746;2022-12-18T15:39:13;21.60;;;16.53;;
2674;SDS011;1347;42.122;24.746;2022-12-18T15:41:40;19.47;;;14.90;;
2674;SDS011;1347;42.122;24.746;2022-12-18T15:44:27;21.00;;;16.37;;
2674;SDS011;1347;42.122;24.746;2022-12-18T15:46:58;23.43;;;17.20;;
2674;SDS011;1347;42.122;24.746;2022-12-18T15:49:25;19.90;;;17.33;;
2674;SDS011;1347;42.122;24.746;2022-12-18T15:51:52;21.37;;;16.50;;
2674;SDS011;1347;42.122;24.746;2022-12-18T15:54:21;23.17;;;18.73;;